createdAt,value
2018-01-13T00:00:06.313Z,28.17
2018-01-13T00:02:32.907Z,26.47
2018-01-13T00:04:59.519Z,26.70
2018-01-13T00:07:26.119Z,26.70
2018-01-13T00:09:52.727Z,27.53
2018-01-13T00:12:19.422Z,27.43
2018-01-13T00:14:46.100Z,26.30
2018-01-13T00:17:12.728Z,27.27
2018-01-13T00:19:39.335Z,27.60
2018-01-13T00:22:05.935Z,25.67
2018-01-13T00:24:32.531Z,25.90
2018-01-13T00:26:59.149Z,25.93
2018-01-13T00:29:25.743Z,25.67
2018-01-13T00:31:52.395Z,27.30
2018-01-13T00:34:19.072Z,26.70
2018-01-13T00:36:45.683Z,26.03
2018-01-13T00:39:12.284Z,26.00
2018-01-13T00:41:38.895Z,27.17
2018-01-13T00:44:05.492Z,27.00
2018-01-13T00:46:32.146Z,25.97
2018-01-13T00:48:58.739Z,25.17
2018-01-13T00:51:25.350Z,25.90
2018-01-13T00:53:51.929Z,26.60
2018-01-13T00:56:18.540Z,24.23
2018-01-13T00:58:45.136Z,25.33
2018-01-13T01:01:11.731Z,25.97
2018-01-13T01:03:38.339Z,24.40
2018-01-13T01:06:04.955Z,24.33
2018-01-13T01:08:31.552Z,23.83
2018-01-13T01:10:58.189Z,24.90
2018-01-13T01:13:24.779Z,24.77
2018-01-13T01:15:51.379Z,26.20
2018-01-13T01:18:17.983Z,24.50
2018-01-13T01:20:44.580Z,24.20
2018-01-13T01:23:11.185Z,24.10
2018-01-13T01:25:37.801Z,25.10
2018-01-13T01:28:04.400Z,25.40
2018-01-13T01:30:30.995Z,25.40
2018-01-13T01:32:57.691Z,24.23
2018-01-13T01:35:24.291Z,25.30
2018-01-13T01:37:50.884Z,24.60
2018-01-13T01:40:17.503Z,24.00
2018-01-13T01:42:44.107Z,23.97
2018-01-13T01:45:10.702Z,25.10
2018-01-13T01:47:37.311Z,24.63
2018-01-13T01:50:03.916Z,22.00
2018-01-13T01:52:30.511Z,22.97
2018-01-13T01:54:57.479Z,22.10
2018-01-13T01:57:24.075Z,21.97
2018-01-13T01:59:50.679Z,23.00
2018-01-13T02:02:17.289Z,23.10
2018-01-13T02:04:43.880Z,21.83
2018-01-13T02:07:10.480Z,22.63
2018-01-13T02:09:37.087Z,21.10
2018-01-13T02:12:03.686Z,21.30
2018-01-13T02:14:30.283Z,21.67
2018-01-13T02:16:56.896Z,21.17
2018-01-13T02:19:23.497Z,22.10
2018-01-13T02:21:50.100Z,21.40
2018-01-13T02:24:16.755Z,21.63
2018-01-13T02:26:43.358Z,21.40
2018-01-13T02:29:09.955Z,20.10
2018-01-13T02:31:36.620Z,21.27
2018-01-13T02:34:03.163Z,20.40
2018-01-13T02:36:29.767Z,21.57
2018-01-13T02:38:56.428Z,21.20
2018-01-13T02:41:23.027Z,22.23
2018-01-13T02:43:49.643Z,21.83
2018-01-13T02:46:16.271Z,20.77
2018-01-13T02:48:42.876Z,21.37
2018-01-13T02:51:09.476Z,20.90
2018-01-13T02:53:36.088Z,20.60
2018-01-13T02:56:02.691Z,20.67
2018-01-13T02:58:29.295Z,19.80
2018-01-13T03:00:55.895Z,21.40
2018-01-13T03:03:22.500Z,22.20
2018-01-13T03:05:49.095Z,20.73
2018-01-13T03:08:15.704Z,19.50
2018-01-13T03:10:42.303Z,20.73
2018-01-13T03:13:08.903Z,19.37
2018-01-13T03:15:35.511Z,19.73
2018-01-13T03:18:02.107Z,20.70
2018-01-13T03:20:28.709Z,18.90
2018-01-13T03:22:55.343Z,19.53
2018-01-13T03:25:21.946Z,18.23
2018-01-13T03:27:48.551Z,19.83
2018-01-13T03:30:15.175Z,19.73
2018-01-13T03:32:41.775Z,20.10
2018-01-13T03:35:08.382Z,19.90
2018-01-13T03:37:35.035Z,18.67
2018-01-13T03:40:01.635Z,18.83
2018-01-13T03:42:28.235Z,20.60
2018-01-13T03:44:54.860Z,19.90
2018-01-13T03:47:21.455Z,18.53
2018-01-13T03:49:48.055Z,18.27
2018-01-13T03:52:14.959Z,19.90
2018-01-13T03:54:41.555Z,18.00
2018-01-13T03:57:08.155Z,19.20
2018-01-13T03:59:34.787Z,18.20
2018-01-13T04:02:01.383Z,19.70
2018-01-13T04:04:27.983Z,19.87
2018-01-13T04:06:54.595Z,19.23
2018-01-13T04:09:21.199Z,18.37
2018-01-13T04:11:47.799Z,19.07
2018-01-13T04:14:14.419Z,19.17
2018-01-13T04:16:41.019Z,18.50
2018-01-13T04:19:07.615Z,18.30
2018-01-13T04:21:34.224Z,18.40
2018-01-13T04:24:00.838Z,17.80
2018-01-13T04:26:27.419Z,18.43
2018-01-13T04:28:54.033Z,17.23
2018-01-13T04:31:20.627Z,17.17
2018-01-13T04:33:47.222Z,16.67
2018-01-13T04:36:13.855Z,17.97
2018-01-13T04:38:40.457Z,17.77
2018-01-13T04:41:07.052Z,17.40
2018-01-13T04:43:33.976Z,17.10
2018-01-13T04:46:00.575Z,17.97
2018-01-13T04:48:27.178Z,17.93
2018-01-13T04:50:54.084Z,17.67
2018-01-13T04:53:20.683Z,18.63
2018-01-13T04:55:47.283Z,18.40
2018-01-13T04:58:14.225Z,17.53
2018-01-13T05:00:40.823Z,18.03
2018-01-13T05:03:07.429Z,17.60
2018-01-13T05:05:34.043Z,17.93
2018-01-13T05:08:00.636Z,17.70
2018-01-13T05:10:27.235Z,17.00
2018-01-13T05:12:53.855Z,17.57
2018-01-13T05:15:20.451Z,18.40
2018-01-13T05:17:47.051Z,18.13
2018-01-13T05:20:13.659Z,16.93
2018-01-13T05:22:40.275Z,17.30
2018-01-13T05:25:06.880Z,18.27
2018-01-13T05:27:33.824Z,17.83
2018-01-13T05:30:00.420Z,16.67
2018-01-13T05:32:27.022Z,17.13
2018-01-13T05:34:53.627Z,16.67
2018-01-13T05:37:20.231Z,16.80
2018-01-13T05:39:46.839Z,17.50
2018-01-13T05:42:13.474Z,16.93
2018-01-13T05:44:40.076Z,16.97
2018-01-13T05:47:06.675Z,17.00
2018-01-13T05:49:33.327Z,17.40
2018-01-13T05:51:59.911Z,16.30
2018-01-13T05:54:26.507Z,16.23
2018-01-13T05:56:53.115Z,16.30
2018-01-13T05:59:19.712Z,15.93
2018-01-13T06:01:46.359Z,15.77
2018-01-13T06:04:12.956Z,16.27
2018-01-13T06:06:40.555Z,16.03
2018-01-13T06:09:07.152Z,16.70
2018-01-13T06:11:34.144Z,15.60
2018-01-13T06:14:00.754Z,15.60
2018-01-13T06:16:27.352Z,16.03
2018-01-13T06:18:53.960Z,15.93
2018-01-13T06:21:20.567Z,14.83
2018-01-13T06:23:47.171Z,15.83
2018-01-13T06:26:13.813Z,15.20
2018-01-13T06:28:40.411Z,15.63
2018-01-13T06:31:07.007Z,14.40
2018-01-13T06:33:33.616Z,14.80
2018-01-13T06:36:00.216Z,15.17
2018-01-13T06:38:26.819Z,15.03
2018-01-13T06:40:53.439Z,14.63
2018-01-13T06:43:20.040Z,15.23
2018-01-13T06:45:46.644Z,14.80
2018-01-13T06:48:13.259Z,14.33
2018-01-13T06:50:39.860Z,14.57
2018-01-13T06:53:06.454Z,14.23
2018-01-13T06:55:33.066Z,14.67
2018-01-13T06:57:59.662Z,14.87
2018-01-13T07:00:26.268Z,14.13
2018-01-13T07:02:52.971Z,14.10
2018-01-13T07:05:19.600Z,14.80
2018-01-13T07:07:46.183Z,13.40
2018-01-13T07:10:12.816Z,14.67
2018-01-13T07:12:39.411Z,14.57
2018-01-13T07:15:06.018Z,13.93
2018-01-13T07:17:32.623Z,14.47
2018-01-13T07:19:59.223Z,14.00
2018-01-13T07:22:25.879Z,14.00
2018-01-13T07:24:52.779Z,14.20
2018-01-13T07:27:19.375Z,14.47
2018-01-13T07:29:45.975Z,12.73
2018-01-13T07:32:12.670Z,14.17
2018-01-13T07:34:39.283Z,13.37
2018-01-13T07:37:05.888Z,13.37
2018-01-13T07:39:32.782Z,14.70
2018-01-13T07:41:59.388Z,14.10
2018-01-13T07:44:25.982Z,14.47
2018-01-13T07:46:52.591Z,14.20
2018-01-13T07:49:19.202Z,15.27
2018-01-13T07:51:45.791Z,15.37
2018-01-13T07:54:12.392Z,15.10
2018-01-13T07:56:38.988Z,14.00
2018-01-13T07:59:05.615Z,14.60
2018-01-13T08:01:32.227Z,14.50
2018-01-13T08:03:58.823Z,15.07
2018-01-13T08:06:25.447Z,14.10
2018-01-13T08:08:52.052Z,14.13
2018-01-13T08:11:18.680Z,14.83
2018-01-13T08:13:45.282Z,15.70
2018-01-13T08:16:11.879Z,14.33
2018-01-13T08:18:38.484Z,13.57
2018-01-13T08:21:05.083Z,13.53
2018-01-13T08:23:31.695Z,13.67
2018-01-13T08:25:58.295Z,14.23
2018-01-13T08:28:24.906Z,14.20
2018-01-13T08:30:51.503Z,14.30
2018-01-13T08:33:18.103Z,15.40
2018-01-13T08:35:44.727Z,13.63
2018-01-13T08:38:11.324Z,14.23
2018-01-13T08:40:37.928Z,13.37
2018-01-13T08:43:04.533Z,13.33
2018-01-13T08:45:31.144Z,13.00
2018-01-13T08:47:57.735Z,14.63
2018-01-13T08:50:24.336Z,12.10
2018-01-13T08:52:50.940Z,13.33
2018-01-13T08:55:17.548Z,14.23
2018-01-13T08:57:44.149Z,14.60
2018-01-13T09:00:10.783Z,14.10
2018-01-13T09:02:37.383Z,13.13
2018-01-13T09:05:04.011Z,12.50
2018-01-13T09:07:30.611Z,12.17
2018-01-13T09:09:57.211Z,12.90
2018-01-13T09:12:23.828Z,11.80
2018-01-13T09:14:50.434Z,11.73
2018-01-13T09:17:17.060Z,11.50
2018-01-13T09:19:43.731Z,12.97
2018-01-13T09:22:10.331Z,10.43
2018-01-13T09:24:36.962Z,11.17
2018-01-13T09:27:03.561Z,10.90
2018-01-13T09:29:30.160Z,11.80
2018-01-13T09:31:56.775Z,10.70
2018-01-13T09:34:23.371Z,9.60
2018-01-13T09:36:50.011Z,10.27
2018-01-13T09:39:16.620Z,11.13
2018-01-13T09:41:43.233Z,11.30
2018-01-13T09:44:09.820Z,12.07
2018-01-13T09:46:36.419Z,13.20
2018-01-13T09:49:03.331Z,11.80
2018-01-13T09:51:29.931Z,13.00
2018-01-13T09:53:56.535Z,11.60
2018-01-13T09:56:23.135Z,11.20
2018-01-13T09:58:49.736Z,11.73
2018-01-13T10:01:16.348Z,11.67
2018-01-13T10:03:43.020Z,11.30
2018-01-13T10:06:09.550Z,11.13
2018-01-13T10:08:36.159Z,11.47
2018-01-13T10:11:02.755Z,11.53
2018-01-13T10:13:29.383Z,11.43
2018-01-13T10:15:55.988Z,10.70
2018-01-13T10:18:22.595Z,10.80
2018-01-13T10:20:49.203Z,11.20
2018-01-13T10:23:15.809Z,10.77
2018-01-13T10:25:42.707Z,11.43
2018-01-13T10:28:09.307Z,11.30
2018-01-13T10:30:35.913Z,10.70
2018-01-13T10:33:02.516Z,10.37
2018-01-13T10:35:29.115Z,10.20
2018-01-13T10:37:55.728Z,11.30
2018-01-13T10:40:22.332Z,9.37
2018-01-13T10:42:48.960Z,11.00
2018-01-13T10:45:15.573Z,10.40
2018-01-13T10:47:42.185Z,9.30
2018-01-13T10:50:08.783Z,9.73
2018-01-13T10:52:35.375Z,8.83
2018-01-13T10:55:01.975Z,9.77
2018-01-13T10:57:28.579Z,9.47
2018-01-13T10:59:55.176Z,9.13
2018-01-13T11:02:21.791Z,8.80
2018-01-13T11:04:48.389Z,9.20
2018-01-13T11:07:14.983Z,8.83
2018-01-13T11:09:41.585Z,9.70
2018-01-13T11:12:08.183Z,8.37
2018-01-13T11:14:34.791Z,9.20
2018-01-13T11:17:01.398Z,9.20
2018-01-13T11:19:27.990Z,8.93
2018-01-13T11:21:54.584Z,8.83
2018-01-13T11:24:21.177Z,9.85
2018-01-13T11:26:48.699Z,9.60
2018-01-13T11:29:15.408Z,9.20
2018-01-13T11:31:41.909Z,8.37
2018-01-13T11:34:08.499Z,8.33
2018-01-13T11:36:35.108Z,9.30
2018-01-13T11:39:02.035Z,8.20
2018-01-13T11:41:28.619Z,9.17
2018-01-13T11:43:55.220Z,8.87
2018-01-13T11:46:21.823Z,8.63
2018-01-13T11:48:48.423Z,8.43
2018-01-13T11:51:15.059Z,8.47
2018-01-13T11:53:41.652Z,7.93
2018-01-13T11:56:08.247Z,8.23
2018-01-13T11:58:34.848Z,8.23
2018-01-13T12:01:01.443Z,7.90
2018-01-13T12:03:28.051Z,8.33
2018-01-13T12:05:54.647Z,8.60
2018-01-13T12:08:21.248Z,8.60
2018-01-13T12:10:47.858Z,8.53
2018-01-13T12:13:14.443Z,8.57
2018-01-13T12:15:42.020Z,8.40
2018-01-13T12:18:08.626Z,7.83
2018-01-13T12:20:35.224Z,8.13
2018-01-13T12:23:01.832Z,8.30
2018-01-13T12:25:28.432Z,8.53
2018-01-13T12:27:55.039Z,8.57
2018-01-13T12:30:21.641Z,8.10
2018-01-13T12:32:48.253Z,8.23
2018-01-13T12:35:14.861Z,7.27
2018-01-13T12:37:41.451Z,8.17
2018-01-13T12:40:08.055Z,7.00
2018-01-13T12:42:34.643Z,6.70
2018-01-13T12:45:01.345Z,13.33
2018-01-13T12:47:27.932Z,8.97
2018-01-13T12:49:54.530Z,7.87
2018-01-13T12:52:21.179Z,13.07
2018-01-13T12:54:47.767Z,9.43
2018-01-13T12:57:14.354Z,10.37
2018-01-13T12:59:40.955Z,8.80
2018-01-13T13:02:09.504Z,7.83
2018-01-13T13:04:36.164Z,8.73
2018-01-13T13:07:02.764Z,7.70
2018-01-13T13:09:29.364Z,8.33
2018-01-13T13:11:55.964Z,7.60
2018-01-13T13:14:22.555Z,6.30
2018-01-13T13:16:49.171Z,7.87
2018-01-13T13:19:15.764Z,7.10
2018-01-13T13:21:42.359Z,8.20
2018-01-13T13:24:08.958Z,7.80
2018-01-13T13:26:35.547Z,7.40
2018-01-13T13:29:02.192Z,9.03
2018-01-13T13:31:28.811Z,7.07
2018-01-13T13:33:55.412Z,7.00
2018-01-13T13:36:22.017Z,9.07
2018-01-13T13:38:48.619Z,8.07
2018-01-13T13:41:15.231Z,8.00
2018-01-13T13:43:41.876Z,7.33
2018-01-13T13:46:08.455Z,8.00
2018-01-13T13:48:35.077Z,7.93
2018-01-13T13:51:01.652Z,8.50
2018-01-13T13:53:28.250Z,7.20
2018-01-13T13:55:54.849Z,8.87
2018-01-13T13:58:21.443Z,7.73
2018-01-13T14:00:48.043Z,7.93
2018-01-13T14:03:14.644Z,7.77
2018-01-13T14:05:41.254Z,7.00
2018-01-13T14:08:07.847Z,7.50
2018-01-13T14:10:34.448Z,9.50
2018-01-13T14:13:01.056Z,8.27
2018-01-13T14:15:27.670Z,7.37
2018-01-13T14:17:54.337Z,8.57
2018-01-13T14:20:20.931Z,7.90
2018-01-13T14:22:47.568Z,8.30
2018-01-13T14:25:14.195Z,8.20
2018-01-13T14:27:40.830Z,8.50
2018-01-13T14:30:07.473Z,8.67
2018-01-13T14:32:34.068Z,8.33
2018-01-13T14:35:00.678Z,9.00
2018-01-13T14:37:27.312Z,8.60
2018-01-13T14:39:54.223Z,8.50
2018-01-13T14:42:20.831Z,8.30
2018-01-13T14:44:47.420Z,9.07
2018-01-13T14:47:14.057Z,9.77
2018-01-13T14:49:40.635Z,9.73
2018-01-13T14:52:07.320Z,9.63
2018-01-13T14:54:33.936Z,9.00
2018-01-13T14:57:00.553Z,20.77
2018-01-13T14:59:27.195Z,10.60
2018-01-13T15:01:53.783Z,9.47
2018-01-13T15:04:20.708Z,10.63
2018-01-13T15:06:47.381Z,9.73
2018-01-13T15:09:14.095Z,8.97
2018-01-13T15:11:40.690Z,9.27
2018-01-13T15:14:07.291Z,9.53
2018-01-13T15:16:33.900Z,10.13
2018-01-13T15:19:00.496Z,11.90
2018-01-13T15:21:27.095Z,10.97
2018-01-13T15:23:53.703Z,11.57
2018-01-13T15:26:20.299Z,10.70
2018-01-13T15:28:46.907Z,9.80
2018-01-13T15:31:13.511Z,10.20
2018-01-13T15:33:40.117Z,12.60
2018-01-13T15:36:06.719Z,10.40
2018-01-13T15:38:33.346Z,9.90
2018-01-13T15:41:00.248Z,11.80
2018-01-13T15:43:26.867Z,11.10
2018-01-13T15:45:53.463Z,11.10
2018-01-13T15:48:20.075Z,10.90
2018-01-13T15:50:46.669Z,8.50
2018-01-13T15:53:13.354Z,12.80
2018-01-13T15:55:40.057Z,13.60
2018-01-13T15:58:06.655Z,10.63
2018-01-13T16:00:33.264Z,11.27
2018-01-13T16:02:59.869Z,9.90
2018-01-13T16:05:26.487Z,12.43
2018-01-13T16:07:53.088Z,13.50
2018-01-13T16:10:19.695Z,12.03
2018-01-13T16:12:46.299Z,16.20
2018-01-13T16:15:12.898Z,10.33
2018-01-13T16:17:39.498Z,13.00
2018-01-13T16:20:06.179Z,12.80
2018-01-13T16:22:33.067Z,11.57
2018-01-13T16:24:59.671Z,9.83
2018-01-13T16:27:26.267Z,9.87
2018-01-13T16:29:52.859Z,9.73
2018-01-13T16:32:19.474Z,15.10
2018-01-13T16:34:46.083Z,32.80
2018-01-13T16:37:12.685Z,18.83
2018-01-13T16:39:39.299Z,12.80
2018-01-13T16:42:05.926Z,11.70
2018-01-13T16:44:32.535Z,56.50
2018-01-13T16:46:59.144Z,12.63
2018-01-13T16:49:25.747Z,11.17
2018-01-13T16:51:52.351Z,11.73
2018-01-13T16:54:18.947Z,13.50
2018-01-13T16:56:45.563Z,12.27
2018-01-13T16:59:12.163Z,11.90
2018-01-13T17:01:38.763Z,11.10
2018-01-13T17:04:05.363Z,13.63
2018-01-13T17:06:31.959Z,12.00
2018-01-13T17:08:58.569Z,13.00
2018-01-13T17:11:25.167Z,13.10
2018-01-13T17:13:52.060Z,12.73
2018-01-13T17:16:18.663Z,12.70
2018-01-13T17:18:45.283Z,15.60
2018-01-13T17:21:11.891Z,10.80
2018-01-13T17:23:38.500Z,11.27
2018-01-13T17:26:05.112Z,11.57
2018-01-13T17:28:31.847Z,11.83
2018-01-13T17:30:58.460Z,10.03
2018-01-13T17:33:25.059Z,11.73
2018-01-13T17:35:51.660Z,11.37
2018-01-13T17:38:18.283Z,11.93
2018-01-13T17:40:44.875Z,13.30
2018-01-13T17:43:11.483Z,13.70
2018-01-13T17:45:38.084Z,11.40
2018-01-13T17:48:04.701Z,10.80
2018-01-13T17:50:31.307Z,10.13
2018-01-13T17:52:57.904Z,32.90
2018-01-13T17:55:24.528Z,15.63
2018-01-13T17:57:51.135Z,11.77
2018-01-13T18:00:17.735Z,11.67
2018-01-13T18:02:44.340Z,10.43
2018-01-13T18:05:10.951Z,11.03
2018-01-13T18:07:37.548Z,11.00
2018-01-13T18:10:04.143Z,10.90
2018-01-13T18:12:30.747Z,11.27
2018-01-13T18:14:57.348Z,12.73
2018-01-13T18:17:23.955Z,12.20
2018-01-13T18:19:50.555Z,10.87
2018-01-13T18:22:17.165Z,12.27
2018-01-13T18:24:43.776Z,11.10
2018-01-13T18:27:10.375Z,12.20
2018-01-13T18:29:36.995Z,12.43
2018-01-13T18:32:03.587Z,13.20
2018-01-13T18:34:30.191Z,12.73
2018-01-13T18:36:56.791Z,11.70
2018-01-13T18:39:23.416Z,11.73
2018-01-13T18:41:50.020Z,13.60
2018-01-13T18:44:16.619Z,12.00
2018-01-13T18:46:43.219Z,10.70
2018-01-13T18:49:09.816Z,13.43
2018-01-13T18:51:36.427Z,16.33
2018-01-13T18:54:03.027Z,15.30
2018-01-13T18:56:29.636Z,16.23
2018-01-13T18:58:56.237Z,10.90
2018-01-13T19:01:22.837Z,12.20
2018-01-13T19:03:49.495Z,13.80
2018-01-13T19:06:16.076Z,16.23
2018-01-13T19:08:42.952Z,13.97
2018-01-13T19:11:09.552Z,12.73
2018-01-13T19:13:36.153Z,12.40
2018-01-13T19:16:02.760Z,12.00
2018-01-13T19:18:29.364Z,12.47
2018-01-13T19:20:56.017Z,11.50
2018-01-13T19:23:22.580Z,12.40
2018-01-13T19:25:49.207Z,10.77
2018-01-13T19:28:15.811Z,12.10
2018-01-13T19:30:42.415Z,12.67
2018-01-13T19:33:09.024Z,12.37
2018-01-13T19:35:35.635Z,12.33
2018-01-13T19:38:02.244Z,11.10
2018-01-13T19:40:28.848Z,10.70
2018-01-13T19:42:55.452Z,10.10
2018-01-13T19:45:22.156Z,11.90
2018-01-13T19:47:48.743Z,12.17
2018-01-13T19:50:15.352Z,11.40
2018-01-13T19:52:41.957Z,10.90
2018-01-13T19:55:08.558Z,11.63
2018-01-13T19:57:35.214Z,11.10
2018-01-13T20:00:01.775Z,12.20
2018-01-13T20:02:28.380Z,11.13
2018-01-13T20:04:54.979Z,11.00
2018-01-13T20:07:21.583Z,15.57
2018-01-13T20:09:48.191Z,12.13
2018-01-13T20:12:14.809Z,12.00
2018-01-13T20:14:41.417Z,11.63
2018-01-13T20:17:08.015Z,11.60
2018-01-13T20:19:34.616Z,13.80
2018-01-13T20:22:01.230Z,15.20
2018-01-13T20:24:27.827Z,23.37
2018-01-13T20:26:54.736Z,16.70
2018-01-13T20:29:21.351Z,13.00
2018-01-13T20:31:47.939Z,12.50
2018-01-13T20:34:14.549Z,13.80
2018-01-13T20:36:41.151Z,16.27
2018-01-13T20:39:07.760Z,12.93
2018-01-13T20:41:34.371Z,13.20
2018-01-13T20:44:00.979Z,10.30
2018-01-13T20:46:27.579Z,13.83
2018-01-13T20:48:54.180Z,13.33
2018-01-13T20:51:20.788Z,12.90
2018-01-13T20:53:47.407Z,13.40
2018-01-13T20:56:14.035Z,16.80
2018-01-13T20:58:40.635Z,16.90
2018-01-13T21:01:07.547Z,14.10
2018-01-13T21:03:34.143Z,12.50
2018-01-13T21:06:00.748Z,12.27
2018-01-13T21:08:27.359Z,11.37
2018-01-13T21:10:53.956Z,11.60
2018-01-13T21:13:20.563Z,11.70
2018-01-13T21:15:47.164Z,12.63
2018-01-13T21:18:13.779Z,11.83
2018-01-13T21:20:40.382Z,12.40
2018-01-13T21:23:06.976Z,11.50
2018-01-13T21:25:33.579Z,10.57
2018-01-13T21:28:00.179Z,11.20
2018-01-13T21:30:26.780Z,10.73
2018-01-13T21:32:53.383Z,11.40
2018-01-13T21:35:19.995Z,12.30
2018-01-13T21:37:46.604Z,10.90
2018-01-13T21:40:13.202Z,9.83
2018-01-13T21:42:40.675Z,10.60
2018-01-13T21:45:07.291Z,11.13
2018-01-13T21:47:33.894Z,10.60
2018-01-13T21:50:00.518Z,11.43
2018-01-13T21:52:27.128Z,10.90
2018-01-13T21:54:53.727Z,10.80
2018-01-13T21:57:20.372Z,11.30
2018-01-13T21:59:47.099Z,11.00
2018-01-13T22:02:13.719Z,11.20
2018-01-13T22:04:40.331Z,11.00
2018-01-13T22:07:06.936Z,10.77
2018-01-13T22:09:33.556Z,11.00
2018-01-13T22:12:00.180Z,10.70
2018-01-13T22:14:26.788Z,11.50
2018-01-13T22:16:53.391Z,9.70
2018-01-13T22:19:20.002Z,10.60
2018-01-13T22:21:46.608Z,11.03
2018-01-13T22:24:13.211Z,10.10
2018-01-13T22:26:39.812Z,10.50
2018-01-13T22:29:06.407Z,9.70
2018-01-13T22:31:33.011Z,9.80
2018-01-13T22:33:59.652Z,10.70
2018-01-13T22:36:26.254Z,11.47
2018-01-13T22:38:52.873Z,12.23
2018-01-13T22:41:19.484Z,13.10
2018-01-13T22:43:46.078Z,14.10
2018-01-13T22:46:12.691Z,13.73
2018-01-13T22:48:39.292Z,15.13
2018-01-13T22:51:05.919Z,16.23
2018-01-13T22:53:32.543Z,13.93
2018-01-13T22:55:59.154Z,11.80
2018-01-13T22:58:25.751Z,11.30
2018-01-13T23:00:55.187Z,10.57
2018-01-13T23:03:21.811Z,11.57
2018-01-13T23:05:48.410Z,11.73
2018-01-13T23:08:15.011Z,12.00
2018-01-13T23:10:41.607Z,11.20
2018-01-13T23:13:08.217Z,10.47
2018-01-13T23:15:35.019Z,11.17
2018-01-13T23:18:01.619Z,10.83
2018-01-13T23:20:28.227Z,10.50
2018-01-13T23:22:54.827Z,10.80
2018-01-13T23:25:21.427Z,12.20
2018-01-13T23:27:48.036Z,10.40
2018-01-13T23:30:14.644Z,10.50
2018-01-13T23:32:41.248Z,11.30
2018-01-13T23:35:07.845Z,10.93
2018-01-13T23:37:34.465Z,11.17
2018-01-13T23:40:01.064Z,10.00
2018-01-13T23:42:27.663Z,10.70
2018-01-13T23:44:54.283Z,10.53
2018-01-13T23:47:20.887Z,10.83
2018-01-13T23:49:47.499Z,10.77
2018-01-13T23:52:14.131Z,10.50
2018-01-13T23:54:40.767Z,11.40
2018-01-13T23:57:07.364Z,9.37
2018-01-13T23:59:33.966Z,10.43
